Crittenden, NY (14038)

4:31 PM EST on February 08, 2016 (GMT -0500)
Darien Center | | Change Station
CLOSE
Current Station
Personal Weather Station
Location: Darien Center, NY
Elevation: 961 ft
Nearby Weather Stations

Elev 961 ft 42.91 °N, 78.43 °W | Updated 1 minute ago

Overcast
Overcast
43.8 °F
Feels Like 44 °F
N
1.0
Wind Variable Wind from East
Gusts 5.0 mph

Today
High -- | Low -- °F
--% Chance of Precip.
Yesterday
High -- | Low -- °F
Precip. -- in
Pressure 29.58 in
Visibility 10.0 miles
Clouds Few 5000 ft
Mostly Cloudy 7500 ft
Mostly Cloudy 14000 ft
Overcast 22000 ft
Windchill 44 °F
Dew Point 30 °F
Humidity 57%
Rainfall 0.00 in
Snow Depth Not available.
7:21 AM 5:35 PM
New Moon, 0% visible
METAR KBUF 082054Z 12009KT 10SM FEW050 BKN075 BKN140 OVC220 08/M03 A2957 RMK AO2 SLP017 VIRGA DSNT E-S-W-N T00781033 55008
Pressure 29.58 in
Visibility 10.0 miles
Clouds Few 5000 ft
Mostly Cloudy 7500 ft
Mostly Cloudy 14000 ft
Overcast 22000 ft
Windchill 44 °F
Dew Point 30 °F
Humidity 57%
Rainfall 0.00 in
Snow Depth Not available.
7:21 AM 5:35 PM
New Moon, 0% visible
METAR KBUF 082054Z 12009KT 10SM FEW050 BKN075 BKN140 OVC220 08/M03 A2957 RMK AO2 SLP017 VIRGA DSNT E-S-W-N T00781033 55008

10-Day Weather Forecast

Almanac

Astronomy

Feb. 08, 2016 Rise Set
Actual Time
Civil Twilight
Nautical Twilight
Astronomical Twilight
Moon
Length of Visible Light
Length of Day
Tomorrow will be .
, % of the Moon is Illuminated

Today's Extremes

State Highs State Lows

Community

WunderPhotos

Upload Photos

1,891,517 photos uploaded!

WunderBlog® & News

Nearby

Air Quality

  Air Quality AQ Index Pollutant
Not available.

Snow Depth

Station Depth Elevation

Earthquake Activity

City Distance Mag. Time & Date
Minimum magnitude displayed is 2.5.

Coastal Water Temperatures

Place Temperature

Stations

Nearby Weather Stations

Station Location Temp. Windchill Dew Point Humidity Wind Precip. Elev Updated Type
                   

Watches & Warnings

There are currently no watches in effect.